Arvada, Wyoming
Current Conditions -  °F | °C
As of 2:53 PM on Wednesday 26 Nov 2014 (Local Time) from KBYG Reporting Station
Overcast Overcast  
Wind Chill: -7°   Ceiling: 800
Heat Index: -3°   Visibility: 8mi
Dew Point: -5°   Wind: 8mph
Humidity: 85%   Direction: 150°SSE
Pressure: 30.16"   Gusts: NA
Location:  44.65°N, 106.13°W
Report Text: KBYG 262153Z AUTO 15007KT 8SM OVC008 M03/M05 A3016 RMK AO2 SNE51 SLP248 P0000 T10281050
Loading
Personal Weather Stations






























Interactive Weather Map New forecast layout! Learn more

10-Day Weather Forecast

Advertisements
Track Severe Weather on mobile